sensor_id;sensor_type;location;lat;lon;timestamp;P1;durP1;ratioP1;P2;durP2;ratioP2
33108;SDS011;19481;51.118;6.940;2023-05-07T00:03:36;1.90;;;1.70;;
33108;SDS011;19481;51.118;6.940;2023-05-07T00:08:39;3.70;;;1.83;;
33108;SDS011;19481;51.118;6.940;2023-05-07T00:13:41;2.17;;;1.98;;
33108;SDS011;19481;51.118;6.940;2023-05-07T00:18:42;5.75;;;2.22;;
33108;SDS011;19481;51.118;6.940;2023-05-07T00:23:46;2.28;;;2.08;;
33108;SDS011;19481;51.118;6.940;2023-05-07T00:28:48;1.98;;;1.80;;
33108;SDS011;19481;51.118;6.940;2023-05-07T00:33:49;4.40;;;1.90;;
33108;SDS011;19481;51.118;6.940;2023-05-07T00:38:53;2.38;;;1.50;;
33108;SDS011;19481;51.118;6.940;2023-05-07T00:43:55;2.20;;;1.70;;
33108;SDS011;19481;51.118;6.940;2023-05-07T00:48:57;2.13;;;1.58;;
33108;SDS011;19481;51.118;6.940;2023-05-07T00:54:01;1.80;;;1.70;;
33108;SDS011;19481;51.118;6.940;2023-05-07T00:59:03;2.05;;;1.52;;
33108;SDS011;19481;51.118;6.940;2023-05-07T01:04:05;2.20;;;1.50;;
33108;SDS011;19481;51.118;6.940;2023-05-07T01:09:08;3.33;;;2.15;;
33108;SDS011;19481;51.118;6.940;2023-05-07T01:14:09;2.58;;;2.03;;
33108;SDS011;19481;51.118;6.940;2023-05-07T01:19:11;2.05;;;1.85;;
33108;SDS011;19481;51.118;6.940;2023-05-07T01:24:17;2.45;;;2.13;;
33108;SDS011;19481;51.118;6.940;2023-05-07T01:29:19;3.33;;;2.28;;
33108;SDS011;19481;51.118;6.940;2023-05-07T01:34:21;3.30;;;2.08;;
33108;SDS011;19481;51.118;6.940;2023-05-07T01:39:25;3.00;;;1.88;;
33108;SDS011;19481;51.118;6.940;2023-05-07T01:44:27;3.45;;;2.00;;
33108;SDS011;19481;51.118;6.940;2023-05-07T01:49:29;3.80;;;2.03;;
33108;SDS011;19481;51.118;6.940;2023-05-07T01:54:32;2.50;;;1.95;;
33108;SDS011;19481;51.118;6.940;2023-05-07T01:59:34;3.00;;;1.73;;
33108;SDS011;19481;51.118;6.940;2023-05-07T02:04:36;2.08;;;1.75;;
33108;SDS011;19481;51.118;6.940;2023-05-07T02:09:39;2.40;;;2.10;;
33108;SDS011;19481;51.118;6.940;2023-05-07T02:14:40;2.25;;;1.50;;
33108;SDS011;19481;51.118;6.940;2023-05-07T02:19:42;8.10;;;3.00;;
33108;SDS011;19481;51.118;6.940;2023-05-07T02:24:45;4.78;;;2.60;;
33108;SDS011;19481;51.118;6.940;2023-05-07T02:29:47;2.85;;;2.00;;
33108;SDS011;19481;51.118;6.940;2023-05-07T02:34:49;2.10;;;1.90;;
33108;SDS011;19481;51.118;6.940;2023-05-07T02:39:52;3.78;;;2.33;;
33108;SDS011;19481;51.118;6.940;2023-05-07T02:44:54;4.22;;;1.60;;
33108;SDS011;19481;51.118;6.940;2023-05-07T02:49:56;2.78;;;1.80;;
33108;SDS011;19481;51.118;6.940;2023-05-07T02:54:58;4.60;;;1.80;;
33108;SDS011;19481;51.118;6.940;2023-05-07T03:00:06;1.60;;;1.48;;
33108;SDS011;19481;51.118;6.940;2023-05-07T03:05:11;3.67;;;1.60;;
33108;SDS011;19481;51.118;6.940;2023-05-07T03:10:15;2.40;;;1.58;;
33108;SDS011;19481;51.118;6.940;2023-05-07T03:15:18;4.60;;;1.52;;
33108;SDS011;19481;51.118;6.940;2023-05-07T03:20:20;1.67;;;1.40;;
33108;SDS011;19481;51.118;6.940;2023-05-07T03:25:24;1.30;;;1.20;;
33108;SDS011;19481;51.118;6.940;2023-05-07T03:30:26;2.03;;;1.60;;
33108;SDS011;19481;51.118;6.940;2023-05-07T03:35:27;9.35;;;1.48;;
33108;SDS011;19481;51.118;6.940;2023-05-07T03:40:30;3.03;;;1.50;;
33108;SDS011;19481;51.118;6.940;2023-05-07T03:45:32;3.15;;;1.73;;
33108;SDS011;19481;51.118;6.940;2023-05-07T03:50:34;2.60;;;1.60;;
33108;SDS011;19481;51.118;6.940;2023-05-07T03:55:37;5.20;;;1.98;;
33108;SDS011;19481;51.118;6.940;2023-05-07T04:00:38;5.28;;;1.90;;
33108;SDS011;19481;51.118;6.940;2023-05-07T04:05:40;5.20;;;1.50;;
33108;SDS011;19481;51.118;6.940;2023-05-07T04:10:43;3.92;;;1.40;;
33108;SDS011;19481;51.118;6.940;2023-05-07T04:15:45;4.68;;;1.50;;
33108;SDS011;19481;51.118;6.940;2023-05-07T04:20:49;1.80;;;1.40;;
33108;SDS011;19481;51.118;6.940;2023-05-07T04:25:52;2.15;;;1.70;;
33108;SDS011;19481;51.118;6.940;2023-05-07T04:30:54;1.90;;;1.80;;
33108;SDS011;19481;51.118;6.940;2023-05-07T04:35:55;2.45;;;1.48;;
33108;SDS011;19481;51.118;6.940;2023-05-07T04:41:02;1.65;;;1.40;;
33108;SDS011;19481;51.118;6.940;2023-05-07T04:46:05;2.90;;;1.67;;
33108;SDS011;19481;51.118;6.940;2023-05-07T04:51:06;1.70;;;1.60;;
33108;SDS011;19481;51.118;6.940;2023-05-07T04:56:09;2.92;;;1.40;;
33108;SDS011;19481;51.118;6.940;2023-05-07T05:01:11;2.92;;;1.85;;
33108;SDS011;19481;51.118;6.940;2023-05-07T05:06:12;2.03;;;1.40;;
33108;SDS011;19481;51.118;6.940;2023-05-07T05:11:15;3.75;;;1.42;;
33108;SDS011;19481;51.118;6.940;2023-05-07T05:16:17;1.63;;;1.38;;
33108;SDS011;19481;51.118;6.940;2023-05-07T05:21:19;1.50;;;1.40;;
33108;SDS011;19481;51.118;6.940;2023-05-07T05:26:22;8.50;;;1.38;;
33108;SDS011;19481;51.118;6.940;2023-05-07T05:31:23;1.30;;;1.20;;
33108;SDS011;19481;51.118;6.940;2023-05-07T05:36:25;2.53;;;1.10;;
33108;SDS011;19481;51.118;6.940;2023-05-07T05:41:28;1.27;;;1.15;;
33108;SDS011;19481;51.118;6.940;2023-05-07T05:46:29;1.20;;;1.00;;
33108;SDS011;19481;51.118;6.940;2023-05-07T05:51:31;1.42;;;1.33;;
33108;SDS011;19481;51.118;6.940;2023-05-07T05:56:34;1.55;;;1.42;;
33108;SDS011;19481;51.118;6.940;2023-05-07T06:01:36;1.40;;;1.30;;
33108;SDS011;19481;51.118;6.940;2023-05-07T06:06:37;2.25;;;1.70;;
33108;SDS011;19481;51.118;6.940;2023-05-07T06:11:40;1.67;;;1.45;;
33108;SDS011;19481;51.118;6.940;2023-05-07T06:16:42;3.17;;;1.50;;
33108;SDS011;19481;51.118;6.940;2023-05-07T06:21:44;1.40;;;1.30;;
33108;SDS011;19481;51.118;6.940;2023-05-07T06:26:47;7.68;;;1.38;;
33108;SDS011;19481;51.118;6.940;2023-05-07T06:31:49;1.40;;;1.30;;
33108;SDS011;19481;51.118;6.940;2023-05-07T06:36:51;3.35;;;1.40;;
33108;SDS011;19481;51.118;6.940;2023-05-07T06:41:54;1.60;;;1.50;;
33108;SDS011;19481;51.118;6.940;2023-05-07T06:46:55;1.80;;;1.50;;
33108;SDS011;19481;51.118;6.940;2023-05-07T06:51:57;5.88;;;1.40;;
33108;SDS011;19481;51.118;6.940;2023-05-07T06:57:00;1.40;;;1.10;;
33108;SDS011;19481;51.118;6.940;2023-05-07T07:02:02;2.47;;;1.42;;
33108;SDS011;19481;51.118;6.940;2023-05-07T07:07:03;1.42;;;1.20;;
33108;SDS011;19481;51.118;6.940;2023-05-07T07:12:06;1.33;;;1.20;;
33108;SDS011;19481;51.118;6.940;2023-05-07T07:17:08;1.20;;;1.10;;
33108;SDS011;19481;51.118;6.940;2023-05-07T07:22:09;1.50;;;1.13;;
33108;SDS011;19481;51.118;6.940;2023-05-07T07:27:12;1.65;;;1.00;;
33108;SDS011;19481;51.118;6.940;2023-05-07T07:32:14;4.97;;;1.10;;
33108;SDS011;19481;51.118;6.940;2023-05-07T07:37:15;1.55;;;1.10;;
33108;SDS011;19481;51.118;6.940;2023-05-07T07:42:18;1.23;;;1.00;;
33108;SDS011;19481;51.118;6.940;2023-05-07T07:47:20;2.97;;;1.15;;
33108;SDS011;19481;51.118;6.940;2023-05-07T07:52:22;1.25;;;1.00;;
33108;SDS011;19481;51.118;6.940;2023-05-07T07:57:25;1.75;;;0.80;;
33108;SDS011;19481;51.118;6.940;2023-05-07T08:02:26;5.60;;;1.00;;
33108;SDS011;19481;51.118;6.940;2023-05-07T08:07:28;0.95;;;0.90;;
33108;SDS011;19481;51.118;6.940;2023-05-07T08:12:31;5.65;;;1.13;;
33108;SDS011;19481;51.118;6.940;2023-05-07T08:17:32;1.58;;;1.10;;
33108;SDS011;19481;51.118;6.940;2023-05-07T08:22:34;1.10;;;1.00;;
33108;SDS011;19481;51.118;6.940;2023-05-07T08:27:37;1.08;;;0.90;;
33108;SDS011;19481;51.118;6.940;2023-05-07T08:32:39;1.02;;;0.93;;
33108;SDS011;19481;51.118;6.940;2023-05-07T08:37:41;2.72;;;1.00;;
33108;SDS011;19481;51.118;6.940;2023-05-07T08:42:43;0.85;;;0.85;;
33108;SDS011;19481;51.118;6.940;2023-05-07T08:47:46;1.73;;;1.00;;
33108;SDS011;19481;51.118;6.940;2023-05-07T08:52:50;1.00;;;1.00;;
33108;SDS011;19481;51.118;6.940;2023-05-07T08:57:53;1.75;;;0.90;;
33108;SDS011;19481;51.118;6.940;2023-05-07T09:02:55;1.20;;;1.10;;
33108;SDS011;19481;51.118;6.940;2023-05-07T09:07:58;0.90;;;0.90;;
33108;SDS011;19481;51.118;6.940;2023-05-07T09:13:01;1.23;;;1.10;;
33108;SDS011;19481;51.118;6.940;2023-05-07T09:18:04;1.20;;;1.10;;
33108;SDS011;19481;51.118;6.940;2023-05-07T09:23:05;1.70;;;1.00;;
33108;SDS011;19481;51.118;6.940;2023-05-07T09:28:09;3.05;;;0.85;;
33108;SDS011;19481;51.118;6.940;2023-05-07T09:33:11;1.48;;;0.93;;
33108;SDS011;19481;51.118;6.940;2023-05-07T09:38:13;2.95;;;0.80;;
33108;SDS011;19481;51.118;6.940;2023-05-07T09:43:16;1.35;;;0.70;;
33108;SDS011;19481;51.118;6.940;2023-05-07T09:48:18;3.33;;;0.82;;
33108;SDS011;19481;51.118;6.940;2023-05-07T09:53:19;1.35;;;0.70;;
33108;SDS011;19481;51.118;6.940;2023-05-07T09:58:23;1.80;;;0.95;;
33108;SDS011;19481;51.118;6.940;2023-05-07T10:03:27;0.57;;;0.55;;
33108;SDS011;19481;51.118;6.940;2023-05-07T10:08:30;1.13;;;0.60;;
33108;SDS011;19481;51.118;6.940;2023-05-07T10:13:34;0.93;;;0.80;;
33108;SDS011;19481;51.118;6.940;2023-05-07T10:18:38;0.70;;;0.70;;
33108;SDS011;19481;51.118;6.940;2023-05-07T10:23:41;3.75;;;0.80;;
33108;SDS011;19481;51.118;6.940;2023-05-07T10:28:49;0.90;;;0.77;;
33108;SDS011;19481;51.118;6.940;2023-05-07T10:33:54;1.23;;;0.98;;
33108;SDS011;19481;51.118;6.940;2023-05-07T10:38:57;2.80;;;1.05;;
33108;SDS011;19481;51.118;6.940;2023-05-07T10:44:00;0.60;;;0.60;;
33108;SDS011;19481;51.118;6.940;2023-05-07T10:49:08;0.63;;;0.60;;
33108;SDS011;19481;51.118;6.940;2023-05-07T10:54:21;1.17;;;0.88;;
33108;SDS011;19481;51.118;6.940;2023-05-07T10:59:31;1.35;;;0.77;;
33108;SDS011;19481;51.118;6.940;2023-05-07T11:04:41;1.10;;;0.95;;
33108;SDS011;19481;51.118;6.940;2023-05-07T11:09:58;1.30;;;0.90;;
33108;SDS011;19481;51.118;6.940;2023-05-07T11:15:07;0.85;;;0.70;;
33108;SDS011;19481;51.118;6.940;2023-05-07T11:20:09;1.13;;;0.90;;
33108;SDS011;19481;51.118;6.940;2023-05-07T11:25:14;0.80;;;0.63;;
33108;SDS011;19481;51.118;6.940;2023-05-07T11:30:20;2.72;;;0.80;;
33108;SDS011;19481;51.118;6.940;2023-05-07T11:35:22;2.53;;;0.70;;
33108;SDS011;19481;51.118;6.940;2023-05-07T11:40:25;1.08;;;0.60;;
33108;SDS011;19481;51.118;6.940;2023-05-07T11:45:28;3.35;;;0.90;;
33108;SDS011;19481;51.118;6.940;2023-05-07T11:50:29;1.17;;;0.70;;
33108;SDS011;19481;51.118;6.940;2023-05-07T11:55:31;3.72;;;0.75;;
33108;SDS011;19481;51.118;6.940;2023-05-07T12:00:34;1.60;;;0.80;;
33108;SDS011;19481;51.118;6.940;2023-05-07T12:05:36;0.70;;;0.70;;
33108;SDS011;19481;51.118;6.940;2023-05-07T12:10:41;0.82;;;0.82;;
33108;SDS011;19481;51.118;6.940;2023-05-07T12:15:45;1.02;;;0.70;;
33108;SDS011;19481;51.118;6.940;2023-05-07T12:20:46;0.98;;;0.80;;
33108;SDS011;19481;51.118;6.940;2023-05-07T12:25:48;0.95;;;0.85;;
33108;SDS011;19481;51.118;6.940;2023-05-07T12:30:53;0.70;;;0.60;;
33108;SDS011;19481;51.118;6.940;2023-05-07T12:35:55;0.88;;;0.70;;
33108;SDS011;19481;51.118;6.940;2023-05-07T12:40:57;0.93;;;0.73;;
33108;SDS011;19481;51.118;6.940;2023-05-07T12:46:01;2.25;;;0.80;;
33108;SDS011;19481;51.118;6.940;2023-05-07T12:51:05;0.97;;;0.80;;
33108;SDS011;19481;51.118;6.940;2023-05-07T12:56:07;1.70;;;0.75;;
33108;SDS011;19481;51.118;6.940;2023-05-07T13:01:10;2.78;;;2.08;;
33108;SDS011;19481;51.118;6.940;2023-05-07T13:06:15;2.92;;;2.10;;
33108;SDS011;19481;51.118;6.940;2023-05-07T13:11:17;2.35;;;0.98;;
33108;SDS011;19481;51.118;6.940;2023-05-07T13:16:19;4.28;;;2.83;;
33108;SDS011;19481;51.118;6.940;2023-05-07T13:21:21;4.72;;;1.70;;
33108;SDS011;19481;51.118;6.940;2023-05-07T13:26:23;1.48;;;0.80;;
33108;SDS011;19481;51.118;6.940;2023-05-07T13:31:26;1.40;;;0.95;;
33108;SDS011;19481;51.118;6.940;2023-05-07T13:36:27;2.95;;;0.90;;
33108;SDS011;19481;51.118;6.940;2023-05-07T13:41:32;2.00;;;1.05;;
33108;SDS011;19481;51.118;6.940;2023-05-07T13:46:35;3.55;;;1.77;;
33108;SDS011;19481;51.118;6.940;2023-05-07T13:51:37;2.28;;;1.10;;
33108;SDS011;19481;51.118;6.940;2023-05-07T13:56:39;1.70;;;1.33;;
33108;SDS011;19481;51.118;6.940;2023-05-07T14:01:42;3.30;;;1.65;;
33108;SDS011;19481;51.118;6.940;2023-05-07T14:06:43;2.03;;;1.30;;
33108;SDS011;19481;51.118;6.940;2023-05-07T14:11:45;2.35;;;1.42;;
33108;SDS011;19481;51.118;6.940;2023-05-07T14:16:48;4.90;;;1.40;;
33108;SDS011;19481;51.118;6.940;2023-05-07T14:21:50;1.30;;;1.20;;
33108;SDS011;19481;51.118;6.940;2023-05-07T14:26:52;3.75;;;1.65;;
33108;SDS011;19481;51.118;6.940;2023-05-07T14:31:55;6.43;;;2.38;;
33108;SDS011;19481;51.118;6.940;2023-05-07T14:36:56;3.13;;;1.63;;
33108;SDS011;19481;51.118;6.940;2023-05-07T14:41:58;11.43;;;3.15;;
33108;SDS011;19481;51.118;6.940;2023-05-07T14:47:01;7.65;;;2.58;;
33108;SDS011;19481;51.118;6.940;2023-05-07T14:52:03;4.38;;;2.75;;
33108;SDS011;19481;51.118;6.940;2023-05-07T14:57:06;5.57;;;2.13;;
33108;SDS011;19481;51.118;6.940;2023-05-07T15:02:11;4.57;;;2.40;;
33108;SDS011;19481;51.118;6.940;2023-05-07T15:07:12;4.82;;;2.08;;
33108;SDS011;19481;51.118;6.940;2023-05-07T15:12:15;5.25;;;2.22;;
33108;SDS011;19481;51.118;6.940;2023-05-07T15:17:17;2.70;;;2.50;;
33108;SDS011;19481;51.118;6.940;2023-05-07T15:22:19;3.10;;;2.53;;
33108;SDS011;19481;51.118;6.940;2023-05-07T15:27:21;6.55;;;5.10;;
33108;SDS011;19481;51.118;6.940;2023-05-07T15:32:24;5.95;;;3.88;;
33108;SDS011;19481;51.118;6.940;2023-05-07T15:37:26;7.32;;;4.72;;
33108;SDS011;19481;51.118;6.940;2023-05-07T15:42:28;6.88;;;3.72;;
33108;SDS011;19481;51.118;6.940;2023-05-07T15:47:32;9.25;;;4.30;;
33108;SDS011;19481;51.118;6.940;2023-05-07T15:52:34;6.97;;;4.00;;
33108;SDS011;19481;51.118;6.940;2023-05-07T15:57:35;4.90;;;3.60;;
33108;SDS011;19481;51.118;6.940;2023-05-07T16:02:38;4.88;;;3.25;;
33108;SDS011;19481;51.118;6.940;2023-05-07T16:07:40;5.22;;;2.97;;
33108;SDS011;19481;51.118;6.940;2023-05-07T16:12:43;2.97;;;2.70;;
33108;SDS011;19481;51.118;6.940;2023-05-07T16:17:46;5.97;;;3.03;;
33108;SDS011;19481;51.118;6.940;2023-05-07T16:22:50;2.88;;;2.60;;
33108;SDS011;19481;51.118;6.940;2023-05-07T16:27:52;3.83;;;3.13;;
33108;SDS011;19481;51.118;6.940;2023-05-07T16:32:55;4.05;;;3.63;;
33108;SDS011;19481;51.118;6.940;2023-05-07T16:37:57;4.55;;;3.10;;
33108;SDS011;19481;51.118;6.940;2023-05-07T16:42:59;3.97;;;2.40;;
33108;SDS011;19481;51.118;6.940;2023-05-07T16:48:04;2.50;;;2.30;;
33108;SDS011;19481;51.118;6.940;2023-05-07T16:53:07;3.60;;;3.22;;
33108;SDS011;19481;51.118;6.940;2023-05-07T16:58:09;3.30;;;2.20;;
33108;SDS011;19481;51.118;6.940;2023-05-07T17:03:13;4.38;;;3.22;;
33108;SDS011;19481;51.118;6.940;2023-05-07T17:08:14;3.50;;;2.22;;
33108;SDS011;19481;51.118;6.940;2023-05-07T17:13:16;5.22;;;2.63;;
33108;SDS011;19481;51.118;6.940;2023-05-07T17:18:19;2.33;;;2.13;;
33108;SDS011;19481;51.118;6.940;2023-05-07T17:23:20;3.42;;;2.40;;
33108;SDS011;19481;51.118;6.940;2023-05-07T17:28:22;3.00;;;2.70;;
33108;SDS011;19481;51.118;6.940;2023-05-07T17:33:25;2.78;;;2.50;;
33108;SDS011;19481;51.118;6.940;2023-05-07T17:38:27;5.97;;;2.50;;
33108;SDS011;19481;51.118;6.940;2023-05-07T17:43:28;3.78;;;2.55;;
33108;SDS011;19481;51.118;6.940;2023-05-07T17:48:31;3.08;;;2.30;;
33108;SDS011;19481;51.118;6.940;2023-05-07T17:53:33;6.15;;;2.60;;
33108;SDS011;19481;51.118;6.940;2023-05-07T17:58:35;4.20;;;2.63;;
33108;SDS011;19481;51.118;6.940;2023-05-07T18:03:38;2.88;;;2.50;;
33108;SDS011;19481;51.118;6.940;2023-05-07T18:08:39;3.35;;;2.53;;
33108;SDS011;19481;51.118;6.940;2023-05-07T18:13:41;3.75;;;2.83;;
33108;SDS011;19481;51.118;6.940;2023-05-07T18:18:44;3.35;;;2.75;;
33108;SDS011;19481;51.118;6.940;2023-05-07T18:23:46;7.40;;;6.07;;
33108;SDS011;19481;51.118;6.940;2023-05-07T18:28:48;7.30;;;5.32;;
33108;SDS011;19481;51.118;6.940;2023-05-07T18:33:51;5.65;;;3.28;;
33108;SDS011;19481;51.118;6.940;2023-05-07T18:38:54;4.15;;;3.35;;
33108;SDS011;19481;51.118;6.940;2023-05-07T18:43:56;3.28;;;2.85;;
33108;SDS011;19481;51.118;6.940;2023-05-07T18:48:59;3.65;;;3.22;;
33108;SDS011;19481;51.118;6.940;2023-05-07T18:54:01;6.32;;;3.22;;
33108;SDS011;19481;51.118;6.940;2023-05-07T18:59:02;3.03;;;2.72;;
33108;SDS011;19481;51.118;6.940;2023-05-07T19:04:05;3.78;;;2.85;;
33108;SDS011;19481;51.118;6.940;2023-05-07T19:09:07;5.22;;;3.58;;
33108;SDS011;19481;51.118;6.940;2023-05-07T19:14:08;3.08;;;2.88;;
33108;SDS011;19481;51.118;6.940;2023-05-07T19:19:12;3.40;;;2.97;;
33108;SDS011;19481;51.118;6.940;2023-05-07T19:24:13;6.10;;;3.08;;
33108;SDS011;19481;51.118;6.940;2023-05-07T19:29:15;4.90;;;2.55;;
33108;SDS011;19481;51.118;6.940;2023-05-07T19:34:18;5.00;;;3.42;;
33108;SDS011;19481;51.118;6.940;2023-05-07T19:39:19;5.47;;;4.13;;
33108;SDS011;19481;51.118;6.940;2023-05-07T19:44:21;5.38;;;3.38;;
33108;SDS011;19481;51.118;6.940;2023-05-07T19:49:25;8.15;;;5.32;;
33108;SDS011;19481;51.118;6.940;2023-05-07T19:54:27;6.15;;;4.55;;
33108;SDS011;19481;51.118;6.940;2023-05-07T19:59:28;6.38;;;4.03;;
33108;SDS011;19481;51.118;6.940;2023-05-07T20:04:31;3.17;;;2.88;;
33108;SDS011;19481;51.118;6.940;2023-05-07T20:09:36;4.18;;;2.80;;
33108;SDS011;19481;51.118;6.940;2023-05-07T20:14:38;2.60;;;2.40;;
33108;SDS011;19481;51.118;6.940;2023-05-07T20:19:41;5.60;;;2.88;;
33108;SDS011;19481;51.118;6.940;2023-05-07T20:24:43;2.70;;;2.50;;
33108;SDS011;19481;51.118;6.940;2023-05-07T20:29:45;2.97;;;2.47;;
33108;SDS011;19481;51.118;6.940;2023-05-07T20:34:48;3.42;;;2.42;;
33108;SDS011;19481;51.118;6.940;2023-05-07T20:39:50;3.88;;;3.03;;
33108;SDS011;19481;51.118;6.940;2023-05-07T20:44:51;7.90;;;2.95;;
33108;SDS011;19481;51.118;6.940;2023-05-07T20:49:54;6.10;;;3.10;;
33108;SDS011;19481;51.118;6.940;2023-05-07T20:54:57;3.10;;;2.80;;
33108;SDS011;19481;51.118;6.940;2023-05-07T20:59:58;4.82;;;2.95;;
33108;SDS011;19481;51.118;6.940;2023-05-07T21:05:01;4.80;;;3.20;;
33108;SDS011;19481;51.118;6.940;2023-05-07T21:10:04;3.85;;;3.38;;
33108;SDS011;19481;51.118;6.940;2023-05-07T21:15:06;3.95;;;3.53;;
33108;SDS011;19481;51.118;6.940;2023-05-07T21:20:10;5.43;;;3.95;;
33108;SDS011;19481;51.118;6.940;2023-05-07T21:25:12;9.55;;;4.03;;
33108;SDS011;19481;51.118;6.940;2023-05-07T21:30:14;7.95;;;3.45;;
33108;SDS011;19481;51.118;6.940;2023-05-07T21:35:18;5.30;;;3.70;;
33108;SDS011;19481;51.118;6.940;2023-05-07T21:40:20;4.35;;;3.53;;
33108;SDS011;19481;51.118;6.940;2023-05-07T21:45:21;4.85;;;3.60;;
33108;SDS011;19481;51.118;6.940;2023-05-07T21:50:24;4.28;;;3.25;;
33108;SDS011;19481;51.118;6.940;2023-05-07T21:55:26;3.95;;;3.55;;
33108;SDS011;19481;51.118;6.940;2023-05-07T22:00:27;7.93;;;3.63;;
33108;SDS011;19481;51.118;6.940;2023-05-07T22:05:31;3.95;;;2.97;;
33108;SDS011;19481;51.118;6.940;2023-05-07T22:10:33;5.00;;;2.90;;
33108;SDS011;19481;51.118;6.940;2023-05-07T22:15:34;3.55;;;2.67;;
33108;SDS011;19481;51.118;6.940;2023-05-07T22:20:37;3.67;;;2.97;;
33108;SDS011;19481;51.118;6.940;2023-05-07T22:25:39;5.20;;;2.70;;
33108;SDS011;19481;51.118;6.940;2023-05-07T22:30:41;4.30;;;2.40;;
33108;SDS011;19481;51.118;6.940;2023-05-07T22:35:44;8.57;;;3.13;;
33108;SDS011;19481;51.118;6.940;2023-05-07T22:40:45;4.72;;;2.67;;
33108;SDS011;19481;51.118;6.940;2023-05-07T22:45:47;2.95;;;2.40;;
33108;SDS011;19481;51.118;6.940;2023-05-07T22:50:50;2.95;;;2.65;;
33108;SDS011;19481;51.118;6.940;2023-05-07T22:55:52;4.32;;;3.30;;
33108;SDS011;19481;51.118;6.940;2023-05-07T23:00:53;3.78;;;3.30;;
33108;SDS011;19481;51.118;6.940;2023-05-07T23:05:56;4.35;;;2.95;;
33108;SDS011;19481;51.118;6.940;2023-05-07T23:10:58;4.03;;;2.97;;
33108;SDS011;19481;51.118;6.940;2023-05-07T23:15:59;3.10;;;2.80;;
33108;SDS011;19481;51.118;6.940;2023-05-07T23:21:03;5.55;;;3.33;;
33108;SDS011;19481;51.118;6.940;2023-05-07T23:26:05;6.72;;;3.20;;
33108;SDS011;19481;51.118;6.940;2023-05-07T23:31:07;6.28;;;3.47;;
33108;SDS011;19481;51.118;6.940;2023-05-07T23:36:10;3.95;;;3.05;;
33108;SDS011;19481;51.118;6.940;2023-05-07T23:41:12;4.60;;;3.50;;
33108;SDS011;19481;51.118;6.940;2023-05-07T23:46:13;3.58;;;3.25;;
33108;SDS011;19481;51.118;6.940;2023-05-07T23:51:16;4.90;;;3.58;;
33108;SDS011;19481;51.118;6.940;2023-05-07T23:56:18;7.93;;;3.85;;
